Terminal Aerodrome Forecast
Issued by NWS Wilmington, OH

Current Version | Previous Version | Graphics & Text | Print | Product List | Glossary On
Versions: 1 2 3 4 5 6 7 8 9 10 11 12 13 14 15 16 17
000
FTUS41 KILN 181100 RRA
TAFDAY
TAF
KDAY 181153Z 1812/1912 29006KT P6SM OVC019
     FM181500 28005KT P6SM OVC025
     FM181800 28006KT P6SM OVC035
     FM182200 28006KT P6SM SCT035 OVC070
     FM190300 29005KT P6SM OVC050=

USA.gov is the U.S. government's official web portal to all federal, state and local government web resources and services.